createdAt,value
2022-11-12T00:01:26.850Z,94.48
2022-11-12T00:04:12.123Z,98.50
2022-11-12T00:06:57.395Z,96.56
2022-11-12T00:09:42.549Z,96.61
2022-11-12T00:12:27.727Z,94.18
2022-11-12T00:15:13.113Z,92.46
2022-11-12T00:17:58.271Z,92.90
2022-11-12T00:20:44.669Z,94.44
2022-11-12T00:23:29.887Z,92.81
2022-11-12T00:26:14.775Z,91.87
2022-11-12T00:29:00.027Z,93.11
2022-11-12T00:31:45.201Z,94.93
2022-11-12T00:34:31.297Z,95.73
2022-11-12T00:37:16.911Z,95.71
2022-11-12T00:40:02.043Z,93.81
2022-11-12T00:42:47.247Z,94.21
2022-11-12T00:45:32.186Z,93.54
2022-11-12T00:48:17.519Z,94.50
2022-11-12T00:51:04.796Z,94.78
2022-11-12T00:53:50.678Z,96.58
2022-11-12T00:56:35.852Z,96.25
2022-11-12T00:59:21.023Z,95.59
2022-11-12T01:02:06.380Z,94.47
2022-11-12T01:04:51.601Z,96.14
2022-11-12T01:07:36.909Z,98.22
2022-11-12T01:10:22.328Z,95.30
2022-11-12T01:13:07.519Z,95.15
2022-11-12T01:15:52.852Z,95.28
2022-11-12T01:18:38.096Z,97.23
2022-11-12T01:21:28.623Z,96.20
2022-11-12T01:24:14.007Z,96.30
2022-11-12T01:26:59.154Z,97.14
2022-11-12T01:29:44.414Z,97.83
2022-11-12T01:32:29.605Z,96.57
2022-11-12T01:35:14.925Z,95.01
2022-11-12T01:38:00.210Z,96.60
2022-11-12T01:40:45.423Z,95.78
2022-11-12T01:43:30.790Z,96.46
2022-11-12T01:46:28.781Z,96.51
2022-11-12T01:49:23.555Z,97.97
2022-11-12T01:52:17.120Z,95.25
2022-11-12T01:55:07.073Z,95.71
2022-11-12T01:58:08.108Z,96.29
2022-11-12T02:00:53.331Z,98.20
2022-11-12T02:03:38.481Z,98.28
2022-11-12T02:06:24.592Z,97.11
2022-11-12T02:09:10.072Z,97.35
2022-11-12T02:11:55.314Z,95.51
2022-11-12T02:14:40.855Z,95.88
2022-11-12T02:17:25.829Z,95.95
2022-11-12T02:20:12.888Z,97.67
2022-11-12T02:22:57.755Z,97.22
2022-11-12T02:25:43.004Z,98.38
2022-11-12T02:28:31.504Z,97.30
2022-11-12T02:31:16.757Z,98.45
2022-11-12T02:34:02.894Z,98.51
2022-11-12T02:36:47.955Z,100.00
2022-11-12T02:39:34.002Z,96.89
2022-11-12T02:42:19.259Z,94.39
2022-11-12T02:45:05.872Z,95.12
2022-11-12T02:47:50.904Z,95.73
2022-11-12T02:50:35.957Z,95.13
2022-11-12T02:53:21.266Z,96.05
2022-11-12T02:56:06.928Z,96.48
2022-11-12T02:58:51.867Z,99.61
2022-11-12T03:01:37.010Z,99.47
2022-11-12T03:04:22.233Z,95.34
2022-11-12T03:07:07.355Z,97.67
2022-11-12T03:09:52.586Z,96.83
2022-11-12T03:12:37.732Z,97.88
2022-11-12T03:15:23.305Z,95.76
2022-11-12T03:18:08.573Z,98.49
2022-11-12T03:20:54.127Z,99.93
2022-11-12T03:23:39.386Z,98.24
2022-11-12T03:26:24.680Z,99.99
2022-11-12T03:29:10.087Z,98.78
2022-11-12T03:31:55.619Z,98.00
2022-11-12T03:34:40.530Z,99.36
2022-11-12T03:37:25.729Z,98.10
2022-11-12T03:40:11.354Z,98.39
2022-11-12T03:42:57.162Z,99.32
2022-11-12T03:45:42.071Z,100.00
2022-11-12T03:48:27.752Z,98.89
2022-11-12T03:51:16.356Z,96.99
2022-11-12T03:54:01.579Z,97.49
2022-11-12T03:56:46.804Z,96.36
2022-11-12T03:59:32.060Z,94.37
2022-11-12T04:02:16.952Z,96.96
2022-11-12T04:05:20.729Z,97.17
2022-11-12T04:08:36.511Z,98.70
2022-11-12T04:11:21.782Z,95.86
2022-11-12T04:14:07.039Z,96.64
2022-11-12T04:17:10.982Z,97.19
2022-11-12T04:20:14.881Z,97.35
2022-11-12T04:23:00.028Z,96.89
2022-11-12T04:26:04.783Z,98.88
2022-11-12T04:29:08.640Z,93.63
2022-11-12T04:31:54.464Z,95.06
2022-11-12T04:34:39.683Z,96.31
2022-11-12T04:37:28.385Z,100.00
2022-11-12T04:40:33.893Z,97.29
2022-11-12T04:43:37.607Z,94.96
2022-11-12T04:46:22.818Z,97.50
2022-11-12T04:49:08.140Z,98.35
2022-11-12T04:52:04.997Z,100.00
2022-11-12T04:54:50.888Z,99.05
2022-11-12T04:57:36.330Z,98.83
2022-11-12T05:00:21.604Z,97.88
2022-11-12T05:03:06.886Z,97.07
2022-11-12T05:05:52.139Z,97.44
2022-11-12T05:08:37.541Z,97.57
2022-11-12T05:11:22.433Z,94.70
2022-11-12T05:14:07.623Z,95.89
2022-11-12T05:16:52.776Z,97.90
2022-11-12T05:19:38.100Z,97.31
2022-11-12T05:22:42.609Z,97.71
2022-11-12T05:25:28.155Z,97.76
2022-11-12T05:28:13.511Z,96.34
2022-11-12T05:30:58.604Z,96.48
2022-11-12T05:33:43.879Z,97.62
2022-11-12T05:36:28.968Z,98.03
2022-11-12T05:39:14.133Z,95.03
2022-11-12T05:42:12.488Z,96.11
2022-11-12T05:44:58.144Z,94.50
2022-11-12T05:47:43.765Z,95.28
2022-11-12T05:50:34.993Z,94.70
2022-11-12T05:53:25.689Z,94.61
2022-11-12T05:56:11.556Z,94.72
2022-11-12T05:58:57.585Z,95.44
2022-11-12T06:01:45.297Z,96.51
2022-11-12T06:04:30.343Z,95.16
2022-11-12T06:07:15.692Z,95.92
2022-11-12T06:10:00.791Z,94.59
2022-11-12T06:12:46.122Z,95.75
2022-11-12T06:15:36.502Z,96.95
2022-11-12T06:18:25.521Z,94.21
2022-11-12T06:21:24.203Z,93.71
2022-11-12T06:24:09.549Z,96.14
2022-11-12T06:26:54.401Z,96.80
2022-11-12T06:29:39.663Z,96.31
2022-11-12T06:32:25.511Z,96.71
2022-11-12T06:35:10.806Z,95.45
2022-11-12T06:37:56.122Z,97.29
2022-11-12T06:40:41.952Z,97.96
2022-11-12T06:43:29.567Z,98.98
2022-11-12T06:46:16.426Z,100.00
2022-11-12T06:49:01.391Z,100.00
2022-11-12T06:51:46.883Z,100.00
2022-11-12T06:54:32.023Z,100.00
2022-11-12T06:57:17.460Z,100.00
2022-11-12T07:00:02.614Z,100.00
2022-11-12T07:02:47.779Z,100.00
2022-11-12T07:05:36.188Z,100.00
2022-11-12T07:08:21.412Z,100.00
2022-11-12T07:11:07.712Z,99.71
2022-11-12T07:13:52.730Z,100.00
2022-11-12T07:16:37.848Z,100.00
2022-11-12T07:19:23.114Z,100.00
2022-11-12T07:22:08.361Z,97.50
2022-11-12T07:24:53.612Z,98.26
2022-11-12T07:27:38.808Z,94.11
2022-11-12T07:30:24.007Z,95.59
2022-11-12T07:33:09.233Z,99.81
2022-11-12T07:36:01.834Z,94.59
2022-11-12T07:38:50.389Z,95.99
2022-11-12T07:41:35.677Z,100.00
2022-11-12T07:44:20.996Z,99.39
2022-11-12T07:47:06.381Z,99.64
2022-11-12T07:49:51.625Z,98.93
2022-11-12T07:52:36.875Z,100.00
2022-11-12T07:55:22.252Z,100.00
2022-11-12T07:58:07.393Z,100.00
2022-11-12T08:00:53.451Z,99.03
2022-11-12T08:03:38.402Z,98.55
2022-11-12T08:06:23.964Z,98.27
2022-11-12T08:09:09.067Z,97.40
2022-11-12T08:11:54.445Z,99.34
2022-11-12T08:14:40.023Z,98.85
2022-11-12T08:17:24.922Z,100.00
2022-11-12T08:20:10.329Z,97.18
2022-11-12T08:22:59.927Z,94.03
2022-11-12T08:25:45.803Z,94.31
2022-11-12T08:28:32.827Z,95.28
2022-11-12T08:31:21.172Z,93.70
2022-11-12T08:34:12.533Z,93.17
2022-11-12T08:36:57.987Z,93.63
2022-11-12T08:39:43.216Z,91.68
2022-11-12T08:42:28.413Z,91.26
2022-11-12T08:45:13.671Z,90.56
2022-11-12T08:48:00.341Z,92.24
2022-11-12T08:50:45.813Z,88.53
2022-11-12T08:53:31.328Z,87.37
2022-11-12T08:56:16.570Z,88.10
2022-11-12T08:59:06.226Z,87.35
2022-11-12T09:01:52.573Z,87.53
2022-11-12T09:04:37.914Z,87.79
2022-11-12T09:07:48.153Z,88.75
2022-11-12T09:10:28.858Z,87.95
2022-11-12T09:13:14.678Z,88.27
2022-11-12T09:16:05.108Z,89.62
2022-11-12T09:18:50.382Z,88.64
2022-11-12T09:21:35.673Z,87.01
2022-11-12T09:24:20.914Z,87.20
2022-11-12T09:27:06.021Z,87.41
2022-11-12T09:29:51.359Z,86.30
2022-11-12T09:32:36.547Z,87.39
2022-11-12T09:35:22.530Z,88.83
2022-11-12T09:38:07.551Z,85.41
2022-11-12T09:40:52.796Z,84.57
2022-11-12T09:43:44.474Z,85.74
2022-11-12T09:46:54.240Z,83.94
2022-11-12T09:49:47.920Z,83.38
2022-11-12T09:52:33.271Z,82.20
2022-11-12T09:55:31.624Z,80.45
2022-11-12T09:58:19.316Z,81.07
2022-11-12T10:01:15.204Z,83.02
2022-11-12T10:04:32.771Z,82.68
2022-11-12T10:07:21.154Z,80.51
2022-11-12T10:10:15.023Z,79.76
2022-11-12T10:13:25.230Z,78.86
2022-11-12T10:16:43.162Z,78.47
2022-11-12T10:19:52.504Z,75.89
2022-11-12T10:22:49.510Z,76.62
2022-11-12T10:25:36.083Z,77.04
2022-11-12T10:28:21.295Z,75.68
2022-11-12T10:31:19.321Z,72.83
2022-11-12T10:34:13.668Z,73.79
2022-11-12T10:37:06.414Z,73.48
2022-11-12T10:39:52.419Z,73.13
2022-11-12T10:42:56.732Z,73.46
2022-11-12T10:45:42.719Z,72.29
2022-11-12T10:48:32.369Z,71.56
2022-11-12T10:51:39.167Z,70.39
2022-11-12T10:54:27.330Z,70.29
2022-11-12T10:57:18.440Z,63.38
2022-11-12T11:00:18.937Z,63.85
2022-11-12T11:03:15.477Z,59.92
2022-11-12T11:06:06.553Z,61.79
2022-11-12T11:08:54.108Z,59.82
2022-11-12T11:11:50.111Z,60.37
2022-11-12T11:14:35.593Z,61.24
2022-11-12T11:17:20.969Z,61.70
2022-11-12T11:20:31.928Z,62.07
2022-11-12T11:23:25.911Z,60.94
2022-11-12T11:26:38.478Z,61.06
2022-11-12T11:29:46.686Z,61.32
2022-11-12T11:33:01.312Z,59.78
2022-11-12T11:35:52.856Z,61.82
2022-11-12T11:38:39.852Z,59.96
2022-11-12T11:41:45.505Z,60.54
2022-11-12T11:44:52.149Z,59.74
2022-11-12T11:48:02.252Z,61.30
2022-11-12T11:51:25.880Z,60.86
2022-11-12T11:54:30.377Z,60.44
2022-11-12T11:57:22.715Z,59.98
2022-11-12T12:00:15.600Z,59.00
2022-11-12T12:03:10.243Z,60.14
2022-11-12T12:06:07.959Z,58.95
2022-11-12T12:08:56.571Z,59.76
2022-11-12T12:12:02.570Z,65.58
2022-11-12T12:15:09.089Z,67.67
2022-11-12T12:18:02.319Z,68.06
2022-11-12T12:21:03.245Z,69.66
2022-11-12T12:24:07.246Z,70.94
2022-11-12T12:26:57.676Z,70.36
2022-11-12T12:29:53.732Z,70.81
2022-11-12T12:32:56.523Z,70.92
2022-11-12T12:35:53.518Z,70.79
2022-11-12T12:38:48.583Z,71.32
2022-11-12T12:41:49.113Z,71.06
2022-11-12T12:45:04.972Z,70.16
2022-11-12T12:47:52.048Z,69.17
2022-11-12T12:50:39.931Z,68.20
2022-11-12T12:53:28.157Z,65.16
2022-11-12T12:56:13.404Z,57.31
2022-11-12T12:59:03.695Z,57.23
2022-11-12T13:02:01.202Z,57.18
2022-11-12T13:04:54.788Z,57.74
2022-11-12T13:07:45.665Z,58.03
2022-11-12T13:10:36.656Z,56.90
2022-11-12T13:13:21.556Z,58.19
2022-11-12T13:16:07.606Z,56.92
2022-11-12T13:18:52.700Z,59.42
2022-11-12T13:21:37.874Z,59.58
2022-11-12T13:25:01.480Z,66.21
2022-11-12T13:27:47.081Z,68.15
2022-11-12T13:30:32.167Z,69.75
2022-11-12T13:33:31.687Z,72.05
2022-11-12T13:36:25.080Z,73.00
2022-11-12T13:39:19.610Z,74.24
2022-11-12T13:42:36.962Z,74.43
2022-11-12T13:45:26.183Z,73.96
2022-11-12T13:48:21.811Z,75.23
2022-11-12T13:51:15.201Z,75.45
2022-11-12T13:54:01.340Z,76.15
2022-11-12T13:56:46.285Z,77.44
2022-11-12T13:59:31.587Z,77.47
2022-11-12T14:02:25.462Z,78.58
2022-11-12T14:05:23.374Z,78.64
2022-11-12T14:08:33.307Z,79.31
2022-11-12T14:11:21.519Z,79.45
2022-11-12T14:14:28.058Z,78.91
2022-11-12T14:17:29.375Z,80.00
2022-11-12T14:20:30.548Z,80.23
2022-11-12T14:23:25.084Z,80.53
2022-11-12T14:26:12.598Z,80.73
2022-11-12T14:28:57.629Z,80.18
2022-11-12T14:31:43.202Z,81.45
2022-11-12T14:34:34.888Z,82.93
2022-11-12T14:37:32.274Z,83.05
2022-11-12T14:40:18.776Z,83.08
2022-11-12T14:43:03.790Z,83.66
2022-11-12T14:45:54.976Z,84.50
2022-11-12T14:49:12.260Z,85.21
2022-11-12T14:52:06.227Z,85.32
2022-11-12T14:54:56.506Z,84.92
2022-11-12T14:57:41.991Z,85.32
2022-11-12T15:00:30.022Z,86.25
2022-11-12T15:03:20.729Z,86.88
2022-11-12T15:06:06.020Z,87.06
2022-11-12T15:08:59.029Z,86.68
2022-11-12T15:11:47.538Z,87.18
2022-11-12T15:14:34.156Z,87.58
2022-11-12T15:17:33.214Z,88.21
2022-11-12T15:20:19.595Z,87.91
2022-11-12T15:23:05.189Z,87.48
2022-11-12T15:26:01.376Z,85.81
2022-11-12T15:28:59.962Z,85.42
2022-11-12T15:31:49.882Z,86.38
2022-11-12T15:34:40.764Z,86.76
2022-11-12T15:37:29.498Z,87.09
2022-11-12T15:40:20.354Z,86.50
2022-11-12T15:43:13.879Z,86.07
2022-11-12T15:45:59.373Z,86.18
2022-11-12T15:48:44.430Z,86.33
2022-11-12T15:51:29.501Z,86.09
2022-11-12T15:54:14.651Z,87.77
2022-11-12T15:56:59.669Z,86.63
2022-11-12T15:59:46.196Z,87.06
2022-11-12T16:02:31.916Z,86.69
2022-11-12T16:05:18.591Z,87.19
2022-11-12T16:08:04.324Z,87.98
2022-11-12T16:10:50.207Z,87.67
2022-11-12T16:13:36.387Z,87.73
2022-11-12T16:16:21.487Z,89.86
2022-11-12T16:19:13.882Z,88.50
2022-11-12T16:21:59.290Z,88.65
2022-11-12T16:24:44.574Z,88.37
2022-11-12T16:27:30.235Z,87.91
2022-11-12T16:30:15.255Z,87.80
2022-11-12T16:33:01.626Z,88.56
2022-11-12T16:35:46.921Z,87.63
2022-11-12T16:38:32.087Z,87.10
2022-11-12T16:41:17.511Z,87.60
2022-11-12T16:44:02.379Z,87.71
2022-11-12T16:46:47.443Z,87.91
2022-11-12T16:49:38.286Z,87.29
2022-11-12T16:52:23.792Z,87.78
2022-11-12T16:55:10.084Z,87.86
2022-11-12T16:57:54.890Z,88.24
2022-11-12T17:00:44.130Z,88.96
2022-11-12T17:03:29.785Z,89.52
2022-11-12T17:06:15.008Z,88.91
2022-11-12T17:09:00.288Z,89.68
2022-11-12T17:11:45.602Z,88.48
2022-11-12T17:14:30.991Z,88.81
2022-11-12T17:17:16.500Z,89.22
2022-11-12T17:20:01.932Z,88.71
2022-11-12T17:22:47.305Z,89.50
2022-11-12T17:25:32.267Z,89.48
2022-11-12T17:28:17.456Z,88.64
2022-11-12T17:31:12.900Z,88.39
2022-11-12T17:33:58.021Z,88.48
2022-11-12T17:36:44.143Z,89.21
2022-11-12T17:39:29.286Z,89.38
2022-11-12T17:42:14.604Z,88.88
2022-11-12T17:44:59.594Z,88.05
2022-11-12T17:47:44.994Z,87.91
2022-11-12T17:50:29.839Z,87.88
2022-11-12T17:53:15.537Z,87.81
2022-11-12T17:56:01.592Z,88.71
2022-11-12T17:58:47.296Z,88.67
2022-11-12T18:01:34.538Z,88.70
2022-11-12T18:04:22.450Z,89.57
2022-11-12T18:07:08.735Z,89.97
2022-11-12T18:09:54.559Z,90.30
2022-11-12T18:12:39.769Z,90.16
2022-11-12T18:15:25.296Z,89.73
2022-11-12T18:18:10.331Z,90.96
2022-11-12T18:20:56.070Z,90.06
2022-11-12T18:23:44.538Z,90.19
2022-11-12T18:26:29.558Z,91.85
2022-11-12T18:29:14.709Z,91.89
2022-11-12T18:31:59.982Z,89.93
2022-11-12T18:34:45.343Z,89.61
2022-11-12T18:37:30.674Z,89.22
2022-11-12T18:40:16.639Z,89.31
2022-11-12T18:43:01.818Z,90.51
2022-11-12T18:45:54.195Z,90.65
2022-11-12T18:48:40.433Z,90.02
2022-11-12T18:51:25.388Z,89.60
2022-11-12T18:54:10.759Z,90.35
2022-11-12T18:56:56.052Z,89.39
2022-11-12T18:59:41.299Z,90.41
2022-11-12T19:02:26.627Z,89.47
2022-11-12T19:05:11.828Z,91.62
2022-11-12T19:07:57.069Z,90.53
2022-11-12T19:10:42.220Z,91.02
2022-11-12T19:13:27.940Z,91.11
2022-11-12T19:16:17.213Z,91.48
2022-11-12T19:19:02.220Z,90.95
2022-11-12T19:21:48.837Z,91.02
2022-11-12T19:24:33.981Z,92.55
2022-11-12T19:27:19.114Z,91.08
2022-11-12T19:30:05.999Z,91.17
2022-11-12T19:32:51.135Z,92.45
2022-11-12T19:35:38.971Z,92.19
2022-11-12T19:38:24.352Z,91.05
2022-11-12T19:41:17.712Z,91.61
2022-11-12T19:44:04.376Z,90.87
2022-11-12T19:46:49.618Z,89.87
2022-11-12T19:49:34.887Z,89.83
2022-11-12T19:52:19.999Z,90.71
2022-11-12T19:55:05.988Z,91.44
2022-11-12T19:57:52.029Z,92.08
2022-11-12T20:00:37.410Z,91.24
2022-11-12T20:03:25.096Z,91.55
2022-11-12T20:06:16.772Z,91.44
2022-11-12T20:09:03.780Z,92.97
2022-11-12T20:11:50.646Z,91.28
2022-11-12T20:14:36.062Z,92.01
2022-11-12T20:17:21.586Z,93.52
2022-11-12T20:20:09.014Z,91.30
2022-11-12T20:22:54.039Z,94.39
2022-11-12T20:25:39.205Z,93.80
2022-11-12T20:28:24.292Z,93.88
2022-11-12T20:31:12.555Z,94.04
2022-11-12T20:33:57.845Z,92.48
2022-11-12T20:36:43.086Z,92.37
2022-11-12T20:39:28.268Z,93.71
2022-11-12T20:42:13.619Z,93.17
2022-11-12T20:44:58.784Z,92.64
2022-11-12T20:47:43.999Z,91.66
2022-11-12T20:50:29.350Z,91.92
2022-11-12T20:53:14.348Z,90.70
2022-11-12T20:56:11.561Z,93.36
2022-11-12T20:58:58.125Z,92.03
2022-11-12T21:01:43.160Z,92.18
2022-11-12T21:04:28.072Z,95.00
2022-11-12T21:07:13.157Z,93.11
2022-11-12T21:09:58.273Z,93.28
2022-11-12T21:12:43.467Z,93.22
2022-11-12T21:15:28.851Z,93.67
2022-11-12T21:18:13.972Z,93.86
2022-11-12T21:21:08.841Z,92.32
2022-11-12T21:23:54.005Z,92.05
2022-11-12T21:26:39.617Z,91.92
2022-11-12T21:29:24.691Z,92.17
2022-11-12T21:32:10.072Z,91.70
2022-11-12T21:34:55.738Z,91.59
2022-11-12T21:37:40.913Z,91.95
2022-11-12T21:40:25.980Z,91.39
2022-11-12T21:43:11.874Z,90.75
2022-11-12T21:45:57.813Z,90.31
2022-11-12T21:48:43.715Z,90.17
2022-11-12T21:51:31.578Z,89.48
2022-11-12T21:54:16.804Z,88.56
2022-11-12T21:57:02.062Z,87.53
2022-11-12T21:59:47.872Z,87.30
2022-11-12T22:02:33.036Z,86.66
2022-11-12T22:05:18.411Z,86.95
2022-11-12T22:08:03.408Z,86.47
2022-11-12T22:10:48.665Z,85.63
2022-11-12T22:13:34.366Z,86.02
2022-11-12T22:16:21.610Z,86.42
2022-11-12T22:19:07.163Z,87.14
2022-11-12T22:21:52.477Z,87.96
2022-11-12T22:24:37.626Z,87.96
2022-11-12T22:27:23.699Z,88.88
2022-11-12T22:30:09.202Z,89.24
2022-11-12T22:32:54.613Z,90.16
2022-11-12T22:35:39.923Z,91.40
2022-11-12T22:38:25.223Z,93.11
2022-11-12T22:41:15.724Z,93.27
2022-11-12T22:44:02.572Z,93.44
2022-11-12T22:46:47.779Z,93.46
2022-11-12T22:49:33.175Z,93.14
2022-11-12T22:52:18.258Z,93.49
2022-11-12T22:55:04.634Z,92.61
2022-11-12T22:57:49.917Z,92.33
2022-11-12T23:00:35.174Z,90.93
2022-11-12T23:03:20.431Z,91.91
2022-11-12T23:06:06.460Z,92.26
2022-11-12T23:08:53.705Z,91.92
2022-11-12T23:11:38.955Z,91.85
2022-11-12T23:14:24.283Z,91.32
2022-11-12T23:17:09.718Z,90.45
2022-11-12T23:19:54.904Z,90.13
2022-11-12T23:22:40.272Z,89.40
2022-11-12T23:25:25.563Z,89.32
2022-11-12T23:28:10.782Z,88.92
2022-11-12T23:30:56.303Z,88.56
2022-11-12T23:33:49.357Z,88.27
2022-11-12T23:36:34.575Z,88.56
2022-11-12T23:39:19.656Z,88.67
2022-11-12T23:42:05.064Z,89.04
2022-11-12T23:44:50.332Z,89.13
2022-11-12T23:47:35.338Z,90.14
2022-11-12T23:50:20.568Z,90.48
2022-11-12T23:53:05.785Z,90.27
2022-11-12T23:55:51.188Z,90.41
2022-11-12T23:58:38.080Z,90.25
